createdAt,value
2023-04-02T00:00:21.874Z,1.75
2023-04-02T00:02:59.911Z,1.38
2023-04-02T00:05:55.869Z,1.33
2023-04-02T00:08:26.944Z,1.42
2023-04-02T00:10:57.388Z,1.23
2023-04-02T00:13:32.126Z,1.25
2023-04-02T00:16:03.171Z,1.10
2023-04-02T00:18:33.563Z,1.07
2023-04-02T00:21:11.588Z,1.60
2023-04-02T00:23:41.191Z,1.63
2023-04-02T00:26:23.029Z,1.75
2023-04-02T00:28:51.995Z,2.30
2023-04-02T00:31:21.463Z,1.67
2023-04-02T00:33:50.386Z,1.55
2023-04-02T00:36:22.475Z,1.50
2023-04-02T00:38:50.669Z,1.20
2023-04-02T00:41:23.480Z,1.38
2023-04-02T00:43:54.864Z,1.87
2023-04-02T00:46:30.285Z,1.50
2023-04-02T00:49:02.600Z,1.73
2023-04-02T00:51:36.473Z,1.65
2023-04-02T00:54:07.573Z,1.88
2023-04-02T00:56:41.881Z,1.63
2023-04-02T00:59:20.674Z,1.52
2023-04-02T01:01:54.337Z,1.90
2023-04-02T01:04:34.094Z,1.90
2023-04-02T01:07:08.597Z,2.53
2023-04-02T01:10:02.344Z,2.13
2023-04-02T01:12:41.521Z,2.45
2023-04-02T01:15:14.963Z,2.40
2023-04-02T01:17:58.520Z,2.90
2023-04-02T01:20:52.623Z,2.58
2023-04-02T01:23:29.295Z,2.47
2023-04-02T01:26:07.409Z,2.45
2023-04-02T01:28:57.987Z,2.15
2023-04-02T01:31:27.419Z,2.03
2023-04-02T01:33:56.260Z,2.58
2023-04-02T01:36:34.985Z,2.80
2023-04-02T01:39:12.305Z,2.80
2023-04-02T01:41:45.255Z,3.20
2023-04-02T01:44:20.946Z,3.10
2023-04-02T01:46:50.578Z,2.75
2023-04-02T01:49:22.085Z,2.97
2023-04-02T01:51:55.355Z,3.22
2023-04-02T01:54:24.750Z,3.72
2023-04-02T01:56:52.915Z,4.32
2023-04-02T01:59:24.242Z,3.55
2023-04-02T02:02:02.639Z,3.87
2023-04-02T02:04:33.365Z,3.40
2023-04-02T02:07:02.605Z,4.32
2023-04-02T02:09:35.354Z,3.35
2023-04-02T02:12:04.965Z,3.45
2023-04-02T02:14:34.795Z,3.70
2023-04-02T02:17:04.288Z,2.83
2023-04-02T02:19:36.955Z,3.40
2023-04-02T02:22:13.362Z,3.05
2023-04-02T02:24:43.047Z,3.10
2023-04-02T02:27:44.223Z,2.40
2023-04-02T02:30:18.678Z,3.08
2023-04-02T02:32:54.824Z,3.75
2023-04-02T02:35:27.388Z,2.60
2023-04-02T02:38:02.614Z,2.83
2023-04-02T02:40:35.368Z,2.53
2023-04-02T02:43:09.877Z,2.53
2023-04-02T02:45:42.372Z,2.75
2023-04-02T02:48:14.631Z,3.15
2023-04-02T02:50:43.804Z,2.63
2023-04-02T02:53:20.061Z,3.77
2023-04-02T02:55:50.430Z,2.33
2023-04-02T02:58:27.493Z,2.55
2023-04-02T03:01:18.784Z,2.45
2023-04-02T03:03:48.879Z,2.50
2023-04-02T03:06:20.664Z,2.40
2023-04-02T03:09:02.296Z,2.30
2023-04-02T03:11:38.304Z,1.85
2023-04-02T03:14:19.208Z,2.22
2023-04-02T03:16:53.489Z,2.30
2023-04-02T03:19:32.629Z,1.87
2023-04-02T03:22:07.885Z,1.75
2023-04-02T03:24:47.060Z,2.08
2023-04-02T03:27:21.689Z,2.58
2023-04-02T03:29:59.645Z,2.30
2023-04-02T03:32:33.618Z,3.00
2023-04-02T03:35:06.463Z,2.72
2023-04-02T03:37:42.112Z,1.92
2023-04-02T03:40:16.851Z,1.48
2023-04-02T03:42:49.731Z,2.53
2023-04-02T03:45:22.276Z,2.23
2023-04-02T03:47:57.559Z,2.25
2023-04-02T03:50:31.621Z,1.50
2023-04-02T03:53:03.171Z,2.38
2023-04-02T03:55:36.973Z,1.65
2023-04-02T03:58:12.226Z,1.33
2023-04-02T04:00:47.629Z,1.70
2023-04-02T04:03:21.618Z,1.83
2023-04-02T04:05:53.588Z,1.73
2023-04-02T04:08:26.351Z,2.17
2023-04-02T04:10:57.034Z,1.40
2023-04-02T04:13:32.888Z,1.35
2023-04-02T04:16:06.269Z,1.70
2023-04-02T04:18:46.714Z,2.30
2023-04-02T04:21:29.787Z,1.83
2023-04-02T04:24:04.777Z,1.63
2023-04-02T04:26:42.339Z,1.67
2023-04-02T04:29:28.245Z,1.80
2023-04-02T04:32:01.532Z,1.75
2023-04-02T04:34:46.873Z,1.67
2023-04-02T04:37:25.100Z,1.30
2023-04-02T04:39:58.776Z,1.20
2023-04-02T04:42:32.256Z,1.42
2023-04-02T04:45:18.748Z,1.63
2023-04-02T04:47:54.836Z,1.52
2023-04-02T04:50:32.168Z,1.43
2023-04-02T04:53:07.755Z,1.65
2023-04-02T04:55:39.668Z,1.58
2023-04-02T04:58:19.684Z,1.40
2023-04-02T05:00:57.550Z,1.55
2023-04-02T05:03:32.134Z,1.43
2023-04-02T05:06:12.832Z,1.65
2023-04-02T05:08:46.303Z,1.60
2023-04-02T05:11:21.925Z,1.23
2023-04-02T05:13:54.474Z,2.05
2023-04-02T05:16:27.384Z,1.70
2023-04-02T05:19:03.677Z,1.92
2023-04-02T05:21:43.341Z,1.70
2023-04-02T05:24:34.325Z,1.85
2023-04-02T05:27:07.546Z,1.60
2023-04-02T05:29:39.808Z,1.10
2023-04-02T05:32:14.781Z,1.23
2023-04-02T05:34:48.026Z,1.73
2023-04-02T05:37:21.252Z,1.15
2023-04-02T05:39:53.276Z,1.25
2023-04-02T05:42:24.704Z,1.50
2023-04-02T05:45:09.467Z,1.50
2023-04-02T05:47:44.009Z,2.10
2023-04-02T05:50:26.133Z,1.05
2023-04-02T05:53:12.897Z,1.50
2023-04-02T05:55:52.922Z,1.30
2023-04-02T05:58:36.011Z,1.70
2023-04-02T06:01:23.558Z,1.85
2023-04-02T06:04:01.046Z,1.60
2023-04-02T06:06:46.138Z,1.60
2023-04-02T06:09:20.943Z,1.43
2023-04-02T06:12:00.448Z,1.85
2023-04-02T06:14:31.528Z,2.10
2023-04-02T06:16:59.461Z,1.67
2023-04-02T06:19:32.876Z,1.85
2023-04-02T06:22:11.584Z,1.13
2023-04-02T06:24:42.392Z,1.67
2023-04-02T06:27:16.171Z,1.60
2023-04-02T06:29:47.380Z,1.80
2023-04-02T06:32:24.006Z,1.35
2023-04-02T06:34:52.613Z,1.70
2023-04-02T06:37:27.799Z,1.95
2023-04-02T06:40:30.040Z,1.38
2023-04-02T06:43:00.253Z,1.50
2023-04-02T06:45:42.894Z,1.45
2023-04-02T06:48:33.237Z,1.47
2023-04-02T06:51:07.100Z,1.20
2023-04-02T06:53:37.866Z,1.65
2023-04-02T06:56:19.880Z,1.00
2023-04-02T06:58:47.834Z,1.02
2023-04-02T07:01:21.479Z,1.50
2023-04-02T07:03:49.695Z,1.13
2023-04-02T07:06:27.286Z,0.88
2023-04-02T07:08:59.164Z,1.27
2023-04-02T07:11:28.569Z,1.38
2023-04-02T07:13:59.934Z,1.20
2023-04-02T07:16:30.282Z,1.02
2023-04-02T07:18:59.638Z,1.00
2023-04-02T07:21:29.701Z,0.90
2023-04-02T07:23:57.854Z,1.00
2023-04-02T07:26:30.074Z,1.40
2023-04-02T07:28:58.331Z,0.95
2023-04-02T07:31:29.143Z,1.02
2023-04-02T07:34:00.137Z,0.70
2023-04-02T07:36:30.570Z,1.00
2023-04-02T07:38:59.672Z,1.30
2023-04-02T07:41:27.568Z,0.73
2023-04-02T07:43:56.788Z,1.10
2023-04-02T07:46:25.984Z,1.05
2023-04-02T07:48:54.431Z,1.20
2023-04-02T07:51:24.417Z,0.63
2023-04-02T07:53:55.745Z,0.82
2023-04-02T07:56:25.945Z,0.85
2023-04-02T07:58:54.000Z,1.20
2023-04-02T08:01:25.712Z,1.30
2023-04-02T08:03:54.833Z,0.80
2023-04-02T08:06:23.842Z,0.77
2023-04-02T08:08:52.055Z,2.15
2023-04-02T08:11:19.997Z,1.00
2023-04-02T08:13:48.051Z,0.82
2023-04-02T08:16:16.858Z,0.70
2023-04-02T08:18:47.540Z,0.80
2023-04-02T08:21:16.692Z,0.80
2023-04-02T08:23:44.752Z,0.70
2023-04-02T08:26:18.212Z,0.75
2023-04-02T08:28:46.031Z,0.70
2023-04-02T08:31:13.918Z,1.10
2023-04-02T08:33:41.669Z,0.70
2023-04-02T08:36:16.797Z,1.00
2023-04-02T08:38:44.737Z,0.93
2023-04-02T08:41:21.543Z,0.73
2023-04-02T08:44:02.891Z,0.82
2023-04-02T08:46:38.437Z,0.90
2023-04-02T08:49:13.557Z,0.95
2023-04-02T08:51:43.131Z,1.15
2023-04-02T08:54:27.374Z,1.73
2023-04-02T08:57:00.047Z,0.88
2023-04-02T08:59:33.862Z,1.20
2023-04-02T09:02:15.517Z,0.90
2023-04-02T09:04:43.697Z,0.93
2023-04-02T09:07:16.698Z,0.97
2023-04-02T09:09:48.604Z,0.80
2023-04-02T09:12:19.946Z,0.95
2023-04-02T09:15:00.786Z,0.80
2023-04-02T09:17:31.207Z,0.70
2023-04-02T09:20:09.580Z,0.97
2023-04-02T09:22:38.786Z,0.50
2023-04-02T09:25:14.576Z,0.65
2023-04-02T09:27:42.362Z,0.60
2023-04-02T09:30:24.798Z,0.93
2023-04-02T09:32:54.086Z,0.80
2023-04-02T09:35:26.518Z,1.05
2023-04-02T09:38:18.583Z,0.70
2023-04-02T09:40:50.063Z,0.40
2023-04-02T09:43:20.432Z,0.90
2023-04-02T09:45:58.618Z,0.50
2023-04-02T09:48:30.325Z,0.50
2023-04-02T09:51:13.278Z,1.10
2023-04-02T09:53:43.540Z,0.90
2023-04-02T09:56:17.112Z,0.63
2023-04-02T09:58:47.277Z,0.90
2023-04-02T10:01:29.193Z,0.70
2023-04-02T10:03:59.233Z,0.80
2023-04-02T10:06:29.461Z,1.00
2023-04-02T10:08:58.699Z,0.80
2023-04-02T10:11:43.719Z,0.63
2023-04-02T10:14:20.035Z,1.00
2023-04-02T10:16:51.962Z,1.02
2023-04-02T10:19:27.472Z,1.48
2023-04-02T10:21:56.529Z,0.90
2023-04-02T10:24:28.745Z,0.80
2023-04-02T10:27:09.559Z,0.85
2023-04-02T10:29:49.555Z,0.90
2023-04-02T10:32:21.382Z,0.80
2023-04-02T10:34:57.513Z,1.08
2023-04-02T10:38:00.462Z,0.63
2023-04-02T10:40:36.084Z,0.70
2023-04-02T10:43:28.136Z,0.90
2023-04-02T10:46:02.138Z,1.13
2023-04-02T10:48:38.696Z,0.93
2023-04-02T10:51:12.874Z,0.63
2023-04-02T10:53:49.177Z,0.63
2023-04-02T10:56:18.417Z,1.13
2023-04-02T10:58:55.601Z,1.10
2023-04-02T11:01:29.936Z,0.80
2023-04-02T11:04:02.496Z,0.70
2023-04-02T11:06:38.969Z,0.90
2023-04-02T11:09:16.951Z,1.00
2023-04-02T11:11:49.782Z,1.10
2023-04-02T11:14:21.747Z,1.05
2023-04-02T11:16:51.291Z,0.97
2023-04-02T11:19:29.125Z,1.20
2023-04-02T11:22:00.983Z,1.00
2023-04-02T11:24:39.670Z,1.13
2023-04-02T11:27:21.922Z,0.80
2023-04-02T11:29:52.792Z,0.90
2023-04-02T11:32:40.695Z,0.90
2023-04-02T11:35:36.493Z,0.75
2023-04-02T11:38:40.840Z,0.80
2023-04-02T11:41:08.768Z,1.20
2023-04-02T11:43:52.126Z,1.10
2023-04-02T11:46:42.616Z,0.80
2023-04-02T11:49:57.227Z,1.10
2023-04-02T11:52:28.035Z,1.20
2023-04-02T11:55:02.635Z,1.30
2023-04-02T11:57:43.211Z,2.13
2023-04-02T12:00:24.496Z,0.98
2023-04-02T12:03:06.792Z,0.90
2023-04-02T12:05:43.076Z,1.35
2023-04-02T12:08:23.209Z,1.00
2023-04-02T12:10:57.666Z,1.10
2023-04-02T12:13:51.982Z,1.10
2023-04-02T12:16:24.285Z,1.23
2023-04-02T12:18:54.858Z,1.20
2023-04-02T12:21:25.429Z,0.90
2023-04-02T12:23:55.584Z,0.70
2023-04-02T12:26:42.506Z,1.08
2023-04-02T12:29:31.067Z,1.15
2023-04-02T12:32:01.459Z,1.33
2023-04-02T12:34:31.079Z,1.27
2023-04-02T12:37:05.440Z,1.00
2023-04-02T12:39:35.050Z,1.10
2023-04-02T12:42:02.873Z,1.40
2023-04-02T12:44:32.731Z,1.27
2023-04-02T12:47:02.093Z,1.38
2023-04-02T12:49:36.981Z,0.90
2023-04-02T12:52:07.544Z,1.00
2023-04-02T12:54:39.061Z,0.98
2023-04-02T12:57:33.815Z,0.80
2023-04-02T13:00:06.161Z,1.30
2023-04-02T13:02:45.977Z,0.90
2023-04-02T13:05:14.402Z,0.73
2023-04-02T13:07:48.265Z,1.00
2023-04-02T13:10:26.200Z,0.63
2023-04-02T13:12:57.016Z,0.82
2023-04-02T13:15:28.470Z,0.80
2023-04-02T13:18:20.060Z,1.00
2023-04-02T13:20:57.595Z,0.90
2023-04-02T13:23:33.804Z,1.10
2023-04-02T13:26:05.623Z,0.98
2023-04-02T13:28:33.582Z,0.97
2023-04-02T13:31:01.808Z,1.00
2023-04-02T13:33:31.109Z,1.20
2023-04-02T13:35:59.010Z,0.90
2023-04-02T13:38:26.868Z,0.90
2023-04-02T13:40:54.615Z,0.73
2023-04-02T13:43:22.345Z,0.50
2023-04-02T13:45:52.902Z,0.77
2023-04-02T13:48:24.518Z,0.90
2023-04-02T13:50:53.917Z,0.80
2023-04-02T13:53:28.946Z,0.90
2023-04-02T13:55:57.213Z,0.98
2023-04-02T13:58:24.960Z,1.40
2023-04-02T14:00:52.865Z,1.13
2023-04-02T14:03:24.694Z,0.93
2023-04-02T14:06:03.009Z,0.90
2023-04-02T14:08:41.476Z,0.90
2023-04-02T14:11:24.835Z,1.13
2023-04-02T14:14:08.347Z,0.80
2023-04-02T14:17:00.183Z,1.17
2023-04-02T14:19:50.896Z,0.90
2023-04-02T14:22:31.627Z,1.08
2023-04-02T14:25:09.820Z,0.90
2023-04-02T14:27:45.892Z,1.20
2023-04-02T14:30:20.756Z,0.80
2023-04-02T14:32:56.711Z,0.90
2023-04-02T14:35:30.197Z,1.08
2023-04-02T14:38:09.618Z,1.20
2023-04-02T14:40:46.169Z,1.00
2023-04-02T14:43:20.532Z,1.20
2023-04-02T14:45:58.359Z,0.90
2023-04-02T14:48:38.373Z,0.85
2023-04-02T14:51:14.227Z,0.68
2023-04-02T14:53:55.581Z,0.90
2023-04-02T14:56:25.633Z,0.77
2023-04-02T14:59:03.550Z,0.73
2023-04-02T15:01:38.215Z,0.80
2023-04-02T15:04:13.237Z,1.20
2023-04-02T15:06:45.071Z,0.60
2023-04-02T15:09:19.897Z,0.80
2023-04-02T15:11:51.586Z,0.70
2023-04-02T15:14:23.015Z,0.60
2023-04-02T15:16:51.096Z,0.65
2023-04-02T15:19:19.916Z,0.85
2023-04-02T15:22:08.364Z,0.80
2023-04-02T15:24:49.433Z,0.70
2023-04-02T15:27:37.157Z,0.70
2023-04-02T15:30:15.373Z,0.95
2023-04-02T15:32:44.271Z,0.60
2023-04-02T15:35:28.516Z,0.80
2023-04-02T15:38:06.751Z,0.70
2023-04-02T15:40:49.742Z,0.70
2023-04-02T15:43:23.586Z,0.70
2023-04-02T15:45:59.021Z,0.60
2023-04-02T15:48:44.504Z,0.85
2023-04-02T15:51:26.461Z,0.73
2023-04-02T15:54:03.775Z,0.50
2023-04-02T15:56:42.317Z,0.80
2023-04-02T15:59:45.462Z,0.57
2023-04-02T16:02:33.733Z,0.68
2023-04-02T16:05:04.716Z,0.60
2023-04-02T16:07:57.636Z,0.93
2023-04-02T16:10:40.987Z,1.30
2023-04-02T16:13:18.797Z,0.60
2023-04-02T16:15:52.209Z,0.93
2023-04-02T16:18:29.771Z,0.60
2023-04-02T16:21:02.390Z,0.77
2023-04-02T16:23:36.997Z,0.70
2023-04-02T16:26:19.888Z,0.50
2023-04-02T16:28:56.575Z,0.70
2023-04-02T16:31:32.729Z,0.50
2023-04-02T16:34:03.653Z,0.50
2023-04-02T16:36:43.648Z,0.70
2023-04-02T16:39:22.958Z,0.60
2023-04-02T16:42:01.912Z,0.60
2023-04-02T16:44:41.291Z,0.50
2023-04-02T16:47:24.507Z,0.55
2023-04-02T16:49:59.813Z,0.75
2023-04-02T16:52:40.312Z,0.60
2023-04-02T16:55:27.070Z,0.63
2023-04-02T16:58:08.289Z,0.77
2023-04-02T17:00:47.545Z,0.65
2023-04-02T17:03:30.661Z,0.65
2023-04-02T17:06:05.690Z,0.70
2023-04-02T17:08:41.672Z,0.90
2023-04-02T17:11:11.270Z,0.63
2023-04-02T17:13:42.093Z,0.60
2023-04-02T17:16:20.742Z,1.02
2023-04-02T17:18:50.724Z,0.73
2023-04-02T17:21:21.527Z,0.82
2023-04-02T17:23:56.438Z,0.60
2023-04-02T17:26:28.385Z,0.40
2023-04-02T17:28:58.549Z,0.63
2023-04-02T17:31:34.141Z,0.68
2023-04-02T17:34:10.754Z,0.60
2023-04-02T17:36:45.032Z,0.57
2023-04-02T17:39:21.376Z,0.68
2023-04-02T17:41:53.087Z,0.60
2023-04-02T17:44:35.869Z,0.75
2023-04-02T17:47:14.073Z,0.50
2023-04-02T17:49:53.794Z,0.80
2023-04-02T17:52:26.470Z,0.40
2023-04-02T17:55:04.365Z,0.60
2023-04-02T17:57:44.318Z,0.80
2023-04-02T18:00:25.506Z,0.50
2023-04-02T18:03:11.223Z,0.73
2023-04-02T18:05:44.096Z,0.63
2023-04-02T18:08:24.149Z,0.77
2023-04-02T18:11:06.324Z,0.77
2023-04-02T18:13:36.121Z,0.85
2023-04-02T18:16:19.493Z,0.63
2023-04-02T18:19:03.447Z,0.90
2023-04-02T18:21:38.430Z,0.98
2023-04-02T18:24:23.914Z,0.70
2023-04-02T18:26:56.177Z,0.70
2023-04-02T18:29:32.250Z,0.53
2023-04-02T18:32:09.647Z,0.57
2023-04-02T18:35:02.146Z,0.88
2023-04-02T18:37:38.236Z,0.80
2023-04-02T18:40:27.250Z,1.00
2023-04-02T18:43:03.653Z,1.43
2023-04-02T18:45:43.311Z,0.88
2023-04-02T18:48:22.644Z,0.55
2023-04-02T18:50:52.877Z,0.80
2023-04-02T18:53:24.985Z,0.80
2023-04-02T18:55:56.206Z,1.10
2023-04-02T18:58:28.045Z,1.10
2023-04-02T19:00:57.154Z,1.30
2023-04-02T19:03:30.177Z,1.20
2023-04-02T19:06:02.974Z,1.40
2023-04-02T19:08:35.221Z,0.70
2023-04-02T19:11:10.155Z,0.80
2023-04-02T19:13:38.872Z,0.90
2023-04-02T19:16:27.707Z,0.73
2023-04-02T19:19:05.659Z,1.08
2023-04-02T19:21:44.186Z,0.67
2023-04-02T19:24:27.568Z,0.70
2023-04-02T19:26:59.932Z,0.63
2023-04-02T19:29:40.444Z,0.80
2023-04-02T19:32:19.011Z,0.80
2023-04-02T19:34:54.573Z,0.57
2023-04-02T19:37:32.694Z,1.10
2023-04-02T19:40:12.806Z,0.55
2023-04-02T19:42:47.293Z,0.50
2023-04-02T19:45:28.253Z,0.60
2023-04-02T19:47:57.513Z,0.40
2023-04-02T19:50:25.636Z,0.60
2023-04-02T19:52:55.149Z,0.47
2023-04-02T19:55:23.311Z,0.70
2023-04-02T19:57:52.795Z,0.60
2023-04-02T20:00:22.610Z,0.50
2023-04-02T20:02:50.739Z,0.60
2023-04-02T20:05:18.654Z,0.60
2023-04-02T20:07:47.007Z,0.50
2023-04-02T20:10:18.238Z,0.70
2023-04-02T20:12:46.235Z,0.50
2023-04-02T20:15:14.477Z,0.70
2023-04-02T20:17:42.372Z,0.60
2023-04-02T20:20:13.498Z,0.70
2023-04-02T20:22:42.383Z,0.63
2023-04-02T20:25:11.288Z,0.40
2023-04-02T20:27:40.407Z,0.82
2023-04-02T20:30:09.355Z,0.90
2023-04-02T20:32:38.306Z,0.73
2023-04-02T20:35:07.130Z,0.80
2023-04-02T20:37:35.068Z,0.60
2023-04-02T20:40:03.093Z,0.50
2023-04-02T20:42:31.206Z,0.77
2023-04-02T20:45:00.380Z,0.60
2023-04-02T20:47:28.196Z,0.77
2023-04-02T20:49:56.280Z,0.47
2023-04-02T20:52:24.374Z,0.57
2023-04-02T20:54:52.378Z,0.77
2023-04-02T20:57:22.001Z,0.70
2023-04-02T20:59:49.755Z,0.70
2023-04-02T21:02:19.131Z,0.50
2023-04-02T21:04:46.989Z,0.70
2023-04-02T21:07:14.716Z,0.52
2023-04-02T21:09:42.601Z,0.60
2023-04-02T21:12:11.504Z,0.60
2023-04-02T21:14:40.119Z,0.50
2023-04-02T21:17:08.701Z,0.50
2023-04-02T21:19:38.658Z,0.65
2023-04-02T21:22:06.480Z,0.80
2023-04-02T21:24:34.331Z,1.20
2023-04-02T21:27:02.584Z,0.70
2023-04-02T21:29:30.433Z,0.52
2023-04-02T21:31:59.807Z,0.70
2023-04-02T21:34:29.320Z,0.60
2023-04-02T21:36:58.366Z,0.70
2023-04-02T21:39:27.234Z,0.70
2023-04-02T21:41:55.066Z,0.80
2023-04-02T21:44:24.532Z,0.70
2023-04-02T21:46:54.129Z,0.70
2023-04-02T21:49:23.186Z,1.02
2023-04-02T21:51:52.375Z,0.70
2023-04-02T21:54:22.206Z,0.90
2023-04-02T21:56:51.588Z,0.88
2023-04-02T21:59:20.125Z,0.70
2023-04-02T22:01:50.499Z,1.10
2023-04-02T22:04:20.804Z,0.70
2023-04-02T22:06:49.513Z,1.35
2023-04-02T22:09:19.599Z,0.90
2023-04-02T22:11:51.178Z,0.80
2023-04-02T22:14:19.822Z,0.80
2023-04-02T22:16:47.723Z,0.80
2023-04-02T22:19:17.365Z,0.82
2023-04-02T22:21:46.168Z,0.80
2023-04-02T22:24:16.257Z,0.80
2023-04-02T22:26:44.578Z,0.90
2023-04-02T22:29:14.008Z,0.57
2023-04-02T22:31:41.750Z,1.00
2023-04-02T22:34:10.084Z,0.50
2023-04-02T22:36:37.843Z,0.60
2023-04-02T22:39:09.707Z,0.80
2023-04-02T22:41:38.320Z,0.57
2023-04-02T22:44:06.631Z,0.85
2023-04-02T22:46:36.047Z,0.63
2023-04-02T22:49:04.464Z,0.60
2023-04-02T22:51:32.235Z,0.57
2023-04-02T22:53:59.982Z,0.60
2023-04-02T22:56:31.908Z,0.82
2023-04-02T22:59:00.709Z,0.68
2023-04-02T23:01:32.101Z,0.60
2023-04-02T23:04:01.384Z,0.70
2023-04-02T23:06:29.530Z,0.60
2023-04-02T23:08:57.407Z,1.10
2023-04-02T23:11:27.445Z,0.60
2023-04-02T23:13:57.801Z,0.70
2023-04-02T23:16:27.833Z,0.80
2023-04-02T23:18:56.412Z,0.60
2023-04-02T23:21:26.349Z,0.60
2023-04-02T23:23:54.209Z,0.60
2023-04-02T23:26:23.809Z,0.75
2023-04-02T23:28:52.130Z,0.52
2023-04-02T23:31:22.277Z,0.80
2023-04-02T23:33:50.570Z,0.45
2023-04-02T23:36:21.869Z,0.80
2023-04-02T23:38:54.869Z,0.50
2023-04-02T23:41:24.189Z,0.70
2023-04-02T23:43:52.337Z,0.60
2023-04-02T23:46:20.510Z,0.70
2023-04-02T23:48:51.382Z,1.30
2023-04-02T23:51:19.519Z,0.95
2023-04-02T23:53:47.340Z,0.60
2023-04-02T23:56:16.493Z,0.50
2023-04-02T23:58:44.519Z,0.50
